FDX706 KSLC-KLAS
Flight info
| Callsign | FDX706 |
|---|---|
| Flight time | 0h 54m |
| Altitude | 36000 |
| Route | FFU9 MLF STEWW CHOWW4 |
| Aircraft | B77L/H-SDE1E2E3FGHIJ2J3J4J5M1RWXY/LB1D1 |
Departure
| Time | 2026-05-07 20:16 |
|---|---|
| Airport | Salt Lake City International Airport (KSLC) |
Arrival
| Time | 2026-05-07 21:10 |
|---|---|
| Airport | Harry Reid International Airport (KLAS) |
| Time | Latitude | Longitude | Altitude | Speed | Heading |
|---|---|---|---|---|---|
| 2026-05-07 20:04 | 40.80612 | -111.98278 | 4236 ft | 0 kts | 85° |
| 2026-05-07 20:13 | 40.80614 | -111.98248 | 4237 ft | 7 kts | 85° |
| 2026-05-07 20:13 | 40.80618 | -111.98180 | 4237 ft | 9 kts | 85° |
| 2026-05-07 20:13 | 40.80648 | -111.98100 | 4235 ft | 11 kts | 34° |
| 2026-05-07 20:14 | 40.80704 | -111.98035 | 4236 ft | 11 kts | 52° |
| 2026-05-07 20:14 | 40.80737 | -111.97943 | 4236 ft | 12 kts | 75° |
| 2026-05-07 20:14 | 40.80744 | -111.97832 | 4234 ft | 13 kts | 86° |
| 2026-05-07 20:14 | 40.80716 | -111.97725 | 4233 ft | 13 kts | 140° |
| 2026-05-07 20:15 | 40.80614 | -111.97681 | 4236 ft | 26 kts | 171° |
| 2026-05-07 20:15 | 40.80282 | -111.97640 | 4240 ft | 82 kts | 175° |
| 2026-05-07 20:15 | 40.79426 | -111.97543 | 4234 ft | 161 kts | 176° |
| 2026-05-07 20:15 | 40.78218 | -111.97392 | 4668 ft | 186 kts | 175° |
| 2026-05-07 20:16 | 40.76889 | -111.97127 | 5404 ft | 200 kts | 172° |
| 2026-05-07 20:16 | 40.75466 | -111.96730 | 6012 ft | 219 kts | 171° |
| 2026-05-07 20:16 | 40.73891 | -111.96332 | 6566 ft | 242 kts | 172° |
| 2026-05-07 20:16 | 40.72125 | -111.96049 | 7031 ft | 265 kts | 176° |
| 2026-05-07 20:17 | 40.70231 | -111.95918 | 7722 ft | 279 kts | 182° |
| 2026-05-07 20:17 | 40.68289 | -111.95871 | 8228 ft | 277 kts | 182° |
| 2026-05-07 20:17 | 40.66345 | -111.95832 | 9211 ft | 284 kts | 184° |
| 2026-05-07 20:17 | 40.64348 | -111.95790 | 10212 ft | 290 kts | 184° |
| 2026-05-07 20:18 | 40.62262 | -111.95740 | 10871 ft | 311 kts | 182° |
| 2026-05-07 20:18 | 40.60016 | -111.95683 | 11124 ft | 344 kts | 182° |
| 2026-05-07 20:18 | 40.57539 | -111.95606 | 11645 ft | 365 kts | 182° |
| 2026-05-07 20:18 | 40.54970 | -111.95514 | 12569 ft | 373 kts | 182° |
| 2026-05-07 20:19 | 40.52352 | -111.95417 | 13617 ft | 378 kts | 182° |
| 2026-05-07 20:19 | 40.49691 | -111.95322 | 14562 ft | 384 kts | 182° |
| 2026-05-07 20:19 | 40.47001 | -111.95231 | 15425 ft | 391 kts | 182° |
| 2026-05-07 20:19 | 40.44241 | -111.95111 | 16201 ft | 401 kts | 181° |
| 2026-05-07 20:20 | 40.41420 | -111.94921 | 17054 ft | 407 kts | 180° |
| 2026-05-07 20:20 | 40.38570 | -111.94703 | 17969 ft | 413 kts | 181° |
| 2026-05-07 20:20 | 40.35674 | -111.94486 | 18731 ft | 420 kts | 181° |
| 2026-05-07 20:20 | 40.32767 | -111.94280 | 19432 ft | 427 kts | 181° |
| 2026-05-07 20:21 | 40.29740 | -111.94071 | 20164 ft | 433 kts | 181° |
| 2026-05-07 20:21 | 40.26753 | -111.93960 | 20851 ft | 437 kts | 185° |
| 2026-05-07 20:21 | 40.23711 | -111.94255 | 21560 ft | 439 kts | 192° |
| 2026-05-07 20:21 | 40.20665 | -111.94812 | 22222 ft | 446 kts | 192° |
| 2026-05-07 20:22 | 40.17567 | -111.95344 | 22925 ft | 452 kts | 191° |
| 2026-05-07 20:22 | 40.14430 | -111.95844 | 23636 ft | 458 kts | 191° |
| 2026-05-07 20:22 | 40.11247 | -111.96331 | 24239 ft | 463 kts | 190° |
| 2026-05-07 20:22 | 40.08019 | -111.96806 | 24831 ft | 468 kts | 190° |
| 2026-05-07 20:23 | 40.04757 | -111.97278 | 25405 ft | 472 kts | 190° |
| 2026-05-07 20:23 | 40.01478 | -111.97752 | 26001 ft | 476 kts | 190° |
| 2026-05-07 20:23 | 39.98173 | -111.98230 | 26600 ft | 480 kts | 190° |
| 2026-05-07 20:23 | 39.94835 | -111.98715 | 27177 ft | 485 kts | 190° |
| 2026-05-07 20:24 | 39.91509 | -111.99200 | 27740 ft | 489 kts | 190° |
| 2026-05-07 20:24 | 39.88105 | -111.99696 | 28313 ft | 493 kts | 189° |
| 2026-05-07 20:24 | 39.85072 | -112.00138 | 28803 ft | 497 kts | 189° |
| 2026-05-07 20:24 | 39.81906 | -112.00600 | 29327 ft | 500 kts | 189° |
| 2026-05-07 20:25 | 39.78422 | -112.01107 | 29865 ft | 504 kts | 189° |
| 2026-05-07 20:25 | 39.74928 | -112.01615 | 30344 ft | 508 kts | 189° |
| 2026-05-07 20:25 | 39.71400 | -112.02126 | 30804 ft | 510 kts | 189° |
| 2026-05-07 20:25 | 39.67875 | -112.02637 | 31396 ft | 508 kts | 189° |
| 2026-05-07 20:26 | 39.64363 | -112.03145 | 32009 ft | 506 kts | 189° |
| 2026-05-07 20:26 | 39.60897 | -112.03645 | 32609 ft | 505 kts | 189° |
| 2026-05-07 20:26 | 39.57412 | -112.04149 | 33216 ft | 503 kts | 189° |
| 2026-05-07 20:26 | 39.53931 | -112.04652 | 33772 ft | 502 kts | 189° |
| 2026-05-07 20:27 | 39.50463 | -112.05153 | 34269 ft | 501 kts | 189° |
| 2026-05-07 20:27 | 39.46997 | -112.05653 | 34711 ft | 501 kts | 189° |
| 2026-05-07 20:27 | 39.43537 | -112.06149 | 35141 ft | 500 kts | 189° |
| 2026-05-07 20:27 | 39.40068 | -112.06642 | 35522 ft | 500 kts | 188° |
| 2026-05-07 20:28 | 39.36619 | -112.07131 | 35979 ft | 499 kts | 188° |
| 2026-05-07 20:28 | 39.29686 | -112.08113 | 36038 ft | 501 kts | 188° |
| 2026-05-07 20:29 | 39.22772 | -112.09091 | 36044 ft | 498 kts | 188° |
| 2026-05-07 20:29 | 39.15969 | -112.10305 | 36069 ft | 494 kts | 196° |
| 2026-05-07 20:30 | 39.09524 | -112.13208 | 36071 ft | 489 kts | 208° |
| 2026-05-07 20:30 | 39.03603 | -112.17448 | 36100 ft | 487 kts | 213° |
| 2026-05-07 20:31 | 38.97729 | -112.21815 | 36116 ft | 488 kts | 213° |
| 2026-05-07 20:31 | 38.91825 | -112.26146 | 36137 ft | 488 kts | 213° |
| 2026-05-07 20:32 | 38.85937 | -112.30424 | 36127 ft | 489 kts | 213° |
| 2026-05-07 20:32 | 38.79987 | -112.34730 | 36098 ft | 490 kts | 212° |
| 2026-05-07 20:33 | 38.74044 | -112.39022 | 36100 ft | 490 kts | 213° |
| 2026-05-07 20:33 | 38.68174 | -112.43257 | 36070 ft | 489 kts | 212° |
| 2026-05-07 20:34 | 38.62233 | -112.47537 | 36035 ft | 489 kts | 212° |
| 2026-05-07 20:34 | 38.56344 | -112.51769 | 36047 ft | 488 kts | 212° |
| 2026-05-07 20:35 | 38.50421 | -112.56018 | 36046 ft | 488 kts | 212° |
| 2026-05-07 20:35 | 38.44494 | -112.60263 | 36048 ft | 488 kts | 212° |
| 2026-05-07 20:36 | 38.38577 | -112.64491 | 36059 ft | 487 kts | 212° |
| 2026-05-07 20:36 | 38.32668 | -112.68705 | 36065 ft | 487 kts | 212° |
| 2026-05-07 20:37 | 38.26794 | -112.72888 | 36057 ft | 487 kts | 212° |
| 2026-05-07 20:37 | 38.20867 | -112.77100 | 36055 ft | 485 kts | 212° |
| 2026-05-07 20:38 | 38.15078 | -112.81202 | 35862 ft | 466 kts | 211° |
| 2026-05-07 20:38 | 38.12270 | -112.83190 | 35695 ft | 457 kts | 211° |
| 2026-05-07 20:38 | 38.09507 | -112.85145 | 35397 ft | 452 kts | 211° |
| 2026-05-07 20:38 | 38.06768 | -112.87084 | 35000 ft | 451 kts | 211° |
| 2026-05-07 20:39 | 38.04025 | -112.89025 | 34578 ft | 450 kts | 211° |
| 2026-05-07 20:39 | 38.01331 | -112.90928 | 34208 ft | 449 kts | 211° |
| 2026-05-07 20:39 | 37.98606 | -112.92850 | 33840 ft | 446 kts | 212° |
| 2026-05-07 20:39 | 37.95905 | -112.94753 | 33501 ft | 443 kts | 212° |
| 2026-05-07 20:40 | 37.93218 | -112.96646 | 33147 ft | 440 kts | 211° |
| 2026-05-07 20:40 | 37.90547 | -112.98525 | 32758 ft | 439 kts | 211° |
| 2026-05-07 20:40 | 37.87879 | -113.00401 | 32391 ft | 437 kts | 211° |
| 2026-05-07 20:40 | 37.85224 | -113.02267 | 32124 ft | 435 kts | 211° |
| 2026-05-07 20:41 | 37.82586 | -113.04119 | 32169 ft | 432 kts | 211° |
| 2026-05-07 20:41 | 37.77353 | -113.07950 | 32171 ft | 435 kts | 217° |
| 2026-05-07 20:42 | 37.72402 | -113.12264 | 32155 ft | 435 kts | 218° |
| 2026-05-07 20:42 | 37.67406 | -113.16654 | 32178 ft | 436 kts | 217° |
| 2026-05-07 20:43 | 37.62441 | -113.20982 | 32163 ft | 436 kts | 217° |
| 2026-05-07 20:43 | 37.57444 | -113.25313 | 32131 ft | 436 kts | 217° |
| 2026-05-07 20:44 | 37.52447 | -113.29634 | 32071 ft | 435 kts | 217° |
| 2026-05-07 20:44 | 37.47452 | -113.33948 | 32055 ft | 435 kts | 217° |
| 2026-05-07 20:45 | 37.42472 | -113.38245 | 32017 ft | 433 kts | 217° |
| 2026-05-07 20:45 | 37.37514 | -113.42511 | 31999 ft | 434 kts | 216° |
| 2026-05-07 20:46 | 37.32516 | -113.46807 | 31681 ft | 438 kts | 216° |
| 2026-05-07 20:46 | 37.29988 | -113.48980 | 31225 ft | 437 kts | 216° |
| 2026-05-07 20:46 | 37.27485 | -113.51126 | 30771 ft | 434 kts | 216° |
| 2026-05-07 20:46 | 37.24995 | -113.53255 | 30410 ft | 431 kts | 216° |
| 2026-05-07 20:47 | 37.22421 | -113.55161 | 29964 ft | 428 kts | 208° |
| 2026-05-07 20:47 | 37.19770 | -113.56732 | 29501 ft | 425 kts | 205° |
| 2026-05-07 20:47 | 37.17064 | -113.58208 | 29042 ft | 422 kts | 205° |
| 2026-05-07 20:47 | 37.14382 | -113.59664 | 28602 ft | 418 kts | 205° |
| 2026-05-07 20:48 | 37.11734 | -113.61136 | 28175 ft | 414 kts | 206° |
| 2026-05-07 20:48 | 37.09118 | -113.62626 | 27778 ft | 411 kts | 206° |
| 2026-05-07 20:48 | 37.06537 | -113.64117 | 27365 ft | 407 kts | 206° |
| 2026-05-07 20:48 | 37.03975 | -113.65608 | 26964 ft | 403 kts | 206° |
| 2026-05-07 20:49 | 37.01443 | -113.67083 | 26558 ft | 400 kts | 206° |
| 2026-05-07 20:49 | 36.98920 | -113.68550 | 26170 ft | 397 kts | 206° |
| 2026-05-07 20:49 | 36.96454 | -113.69981 | 25774 ft | 395 kts | 206° |
| 2026-05-07 20:49 | 36.93971 | -113.71421 | 25380 ft | 392 kts | 206° |
| 2026-05-07 20:50 | 36.91500 | -113.72861 | 24996 ft | 390 kts | 206° |
| 2026-05-07 20:50 | 36.89042 | -113.74297 | 24604 ft | 388 kts | 206° |
| 2026-05-07 20:50 | 36.86598 | -113.75724 | 24196 ft | 386 kts | 206° |
| 2026-05-07 20:50 | 36.84170 | -113.77140 | 23810 ft | 385 kts | 206° |
| 2026-05-07 20:51 | 36.81747 | -113.78553 | 23381 ft | 384 kts | 206° |
| 2026-05-07 20:51 | 36.79326 | -113.79962 | 22941 ft | 382 kts | 206° |
| 2026-05-07 20:51 | 36.76955 | -113.81342 | 22531 ft | 379 kts | 206° |
| 2026-05-07 20:51 | 36.74568 | -113.82729 | 22148 ft | 377 kts | 207° |
| 2026-05-07 20:52 | 36.72193 | -113.84113 | 21745 ft | 375 kts | 206° |
| 2026-05-07 20:52 | 36.69834 | -113.85481 | 21375 ft | 372 kts | 206° |
| 2026-05-07 20:52 | 36.67490 | -113.86840 | 20988 ft | 370 kts | 206° |
| 2026-05-07 20:52 | 36.65167 | -113.88187 | 20599 ft | 368 kts | 207° |
| 2026-05-07 20:53 | 36.62855 | -113.89528 | 20232 ft | 366 kts | 206° |
| 2026-05-07 20:53 | 36.60577 | -113.90848 | 19852 ft | 363 kts | 207° |
| 2026-05-07 20:53 | 36.58467 | -113.92479 | 19466 ft | 354 kts | 226° |
| 2026-05-07 20:53 | 36.56924 | -113.94804 | 19136 ft | 345 kts | 236° |
| 2026-05-07 20:54 | 36.55483 | -113.97190 | 18764 ft | 344 kts | 236° |
| 2026-05-07 20:54 | 36.54041 | -113.99560 | 18411 ft | 343 kts | 235° |
| 2026-05-07 20:54 | 36.52593 | -114.01926 | 17986 ft | 343 kts | 235° |
| 2026-05-07 20:54 | 36.51140 | -114.04285 | 17583 ft | 342 kts | 235° |
| 2026-05-07 20:55 | 36.49694 | -114.06623 | 17206 ft | 340 kts | 235° |
| 2026-05-07 20:55 | 36.48269 | -114.08921 | 16960 ft | 336 kts | 234° |
| 2026-05-07 20:55 | 36.46850 | -114.11202 | 16684 ft | 332 kts | 234° |
| 2026-05-07 20:55 | 36.45443 | -114.13465 | 16327 ft | 328 kts | 234° |
| 2026-05-07 20:56 | 36.44507 | -114.14971 | 16082 ft | 325 kts | 234° |
| 2026-05-07 20:56 | 36.43150 | -114.17152 | 15748 ft | 321 kts | 234° |
| 2026-05-07 20:56 | 36.41775 | -114.19358 | 15400 ft | 318 kts | 234° |
| 2026-05-07 20:56 | 36.40427 | -114.21517 | 15061 ft | 314 kts | 234° |
| 2026-05-07 20:57 | 36.39111 | -114.23622 | 14718 ft | 311 kts | 234° |
| 2026-05-07 20:57 | 36.37775 | -114.25726 | 14388 ft | 308 kts | 234° |
| 2026-05-07 20:57 | 36.36451 | -114.27797 | 14049 ft | 305 kts | 234° |
| 2026-05-07 20:57 | 36.35135 | -114.29858 | 13714 ft | 303 kts | 234° |
| 2026-05-07 20:58 | 36.33830 | -114.31902 | 13359 ft | 303 kts | 234° |
| 2026-05-07 20:58 | 36.32516 | -114.33963 | 13010 ft | 307 kts | 234° |
| 2026-05-07 20:58 | 36.31174 | -114.36068 | 12669 ft | 314 kts | 233° |
| 2026-05-07 20:58 | 36.29810 | -114.38205 | 12323 ft | 316 kts | 233° |
| 2026-05-07 20:59 | 36.28446 | -114.40337 | 11962 ft | 314 kts | 233° |
| 2026-05-07 20:59 | 36.27097 | -114.42444 | 11611 ft | 310 kts | 233° |
| 2026-05-07 20:59 | 36.25763 | -114.44527 | 11267 ft | 306 kts | 233° |
| 2026-05-07 20:59 | 36.24441 | -114.46574 | 10935 ft | 302 kts | 233° |
| 2026-05-07 21:00 | 36.23149 | -114.48556 | 10616 ft | 297 kts | 233° |
| 2026-05-07 21:00 | 36.21895 | -114.50559 | 10218 ft | 293 kts | 239° |
| 2026-05-07 21:00 | 36.20863 | -114.52742 | 9767 ft | 293 kts | 244° |
| 2026-05-07 21:00 | 36.19930 | -114.54953 | 9459 ft | 286 kts | 245° |
| 2026-05-07 21:01 | 36.19023 | -114.57126 | 9106 ft | 283 kts | 245° |
| 2026-05-07 21:01 | 36.18110 | -114.59271 | 8727 ft | 281 kts | 244° |
| 2026-05-07 21:01 | 36.17197 | -114.61384 | 8477 ft | 273 kts | 244° |
| 2026-05-07 21:01 | 36.16316 | -114.63400 | 8372 ft | 259 kts | 243° |
| 2026-05-07 21:02 | 36.15473 | -114.65316 | 8243 ft | 246 kts | 243° |
| 2026-05-07 21:02 | 36.14667 | -114.67135 | 8072 ft | 236 kts | 243° |
| 2026-05-07 21:02 | 36.13902 | -114.68865 | 8063 ft | 224 kts | 244° |
| 2026-05-07 21:02 | 36.13156 | -114.70553 | 8065 ft | 223 kts | 244° |
| 2026-05-07 21:03 | 36.12424 | -114.72201 | 8098 ft | 220 kts | 243° |
| 2026-05-07 21:03 | 36.11672 | -114.73897 | 7822 ft | 227 kts | 243° |
| 2026-05-07 21:03 | 36.10919 | -114.75592 | 7573 ft | 222 kts | 243° |
| 2026-05-07 21:03 | 36.10184 | -114.77240 | 7340 ft | 215 kts | 243° |
| 2026-05-07 21:04 | 36.09465 | -114.78853 | 7102 ft | 213 kts | 243° |
| 2026-05-07 21:04 | 36.08752 | -114.80454 | 6878 ft | 212 kts | 243° |
| 2026-05-07 21:04 | 36.08038 | -114.82057 | 6684 ft | 212 kts | 243° |
| 2026-05-07 21:04 | 36.07485 | -114.83699 | 6518 ft | 207 kts | 262° |
| 2026-05-07 21:05 | 36.07416 | -114.85460 | 6278 ft | 208 kts | 271° |
| 2026-05-07 21:05 | 36.07395 | -114.87259 | 6012 ft | 208 kts | 270° |
| 2026-05-07 21:05 | 36.07383 | -114.89028 | 5759 ft | 204 kts | 271° |
| 2026-05-07 21:05 | 36.07380 | -114.90768 | 5492 ft | 201 kts | 271° |
| 2026-05-07 21:06 | 36.07379 | -114.92500 | 5240 ft | 202 kts | 271° |
| 2026-05-07 21:06 | 36.07378 | -114.94242 | 4990 ft | 203 kts | 271° |
| 2026-05-07 21:06 | 36.07376 | -114.95961 | 4706 ft | 195 kts | 271° |
| 2026-05-07 21:06 | 36.07375 | -114.97589 | 4450 ft | 184 kts | 271° |
| 2026-05-07 21:07 | 36.07374 | -114.99107 | 4204 ft | 174 kts | 271° |
| 2026-05-07 21:07 | 36.07373 | -115.00603 | 4066 ft | 174 kts | 271° |
| 2026-05-07 21:07 | 36.07374 | -115.02108 | 3950 ft | 174 kts | 270° |
| 2026-05-07 21:07 | 36.07371 | -115.03644 | 3918 ft | 179 kts | 269° |
| 2026-05-07 21:08 | 36.07347 | -115.05160 | 3554 ft | 170 kts | 269° |
| 2026-05-07 21:08 | 36.07350 | -115.06549 | 3220 ft | 153 kts | 271° |
| 2026-05-07 21:08 | 36.07369 | -115.07798 | 2972 ft | 144 kts | 271° |
| 2026-05-07 21:08 | 36.07371 | -115.09056 | 2715 ft | 151 kts | 271° |
| 2026-05-07 21:09 | 36.07369 | -115.10351 | 2509 ft | 150 kts | 271° |
| 2026-05-07 21:09 | 36.07370 | -115.11653 | 2302 ft | 151 kts | 271° |
| 2026-05-07 21:09 | 36.07367 | -115.12952 | 2145 ft | 150 kts | 270° |
| 2026-05-07 21:09 | 36.07366 | -115.14114 | 2129 ft | 115 kts | 270° |
| 2026-05-07 21:10 | 36.07369 | -115.14726 | 2129 ft | 44 kts | 272° |
| 2026-05-07 21:10 | 36.07437 | -115.14979 | 2127 ft | 17 kts | 299° |
| 2026-05-07 21:10 | 36.07498 | -115.15100 | 2131 ft | 10 kts | 312° |
| 2026-05-07 21:10 | 36.07527 | -115.15127 | 2127 ft | 0 kts | 329° |
| 2026-05-07 21:11 | 36.07527 | -115.15128 | 2127 ft | 0 kts | 329° |
| 2026-05-07 21:11 | 36.07670 | -115.15217 | 2130 ft | 14 kts | 334° |
| 2026-05-07 21:12 | 36.07766 | -115.15260 | 2132 ft | 15 kts | 3° |
| 2026-05-07 21:12 | 36.07805 | -115.15184 | 2130 ft | 13 kts | 89° |
| 2026-05-07 21:12 | 36.07801 | -115.15026 | 2130 ft | 21 kts | 93° |
| 2026-05-07 21:12 | 36.07789 | -115.14850 | 2129 ft | 21 kts | 95° |
| 2026-05-07 21:13 | 36.07775 | -115.14669 | 2128 ft | 22 kts | 95° |
| 2026-05-07 21:13 | 36.07760 | -115.14472 | 2129 ft | 24 kts | 95° |
| 2026-05-07 21:13 | 36.07753 | -115.14267 | 2124 ft | 24 kts | 90° |
| 2026-05-07 21:13 | 36.07753 | -115.14061 | 2125 ft | 24 kts | 90° |
| 2026-05-07 21:14 | 36.07753 | -115.13856 | 2130 ft | 24 kts | 90° |
| 2026-05-07 21:14 | 36.07754 | -115.13651 | 2129 ft | 24 kts | 90° |
| 2026-05-07 21:14 | 36.07755 | -115.13445 | 2131 ft | 24 kts | 89° |
| 2026-05-07 21:14 | 36.07755 | -115.13240 | 2129 ft | 24 kts | 90° |
| 2026-05-07 21:15 | 36.07755 | -115.13037 | 2127 ft | 24 kts | 90° |
| 2026-05-07 21:15 | 36.07754 | -115.12832 | 2125 ft | 24 kts | 90° |
| 2026-05-07 21:15 | 36.07756 | -115.12688 | 2123 ft | 15 kts | 80° |
| 2026-05-07 21:15 | 36.07844 | -115.12637 | 2118 ft | 17 kts | 1° |
| 2026-05-07 21:16 | 36.07971 | -115.12637 | 2113 ft | 20 kts | 359° |
| 2026-05-07 21:16 | 36.08099 | -115.12638 | 2103 ft | 16 kts | 360° |
| 2026-05-07 21:16 | 36.08178 | -115.12627 | 2095 ft | 9 kts | 37° |
| 2026-05-07 21:16 | 36.08186 | -115.12580 | 2095 ft | 5 kts | 91° |
| 2026-05-07 21:17 | 36.08185 | -115.12553 | 2096 ft | 1 kts | 91° |
| 2026-05-07 21:17 | 36.08185 | -115.12552 | 2096 ft | 0 kts | 91° |